Time;durP1;ratioP1;P1;durP2;ratioP2;P2;SDS_P1;SDS_P2;PMS_P1;PMS_P2;Temp;Humidity;BMP_temperature;BMP_pressure;BME280_temperature;BME280_humidity;BME280_pressure;Samples;Min_cycle;Max_cycle;Signal;HPM_P1;HPM_P2
2022/12/23 00:02:17;;;;;;;;;;;19.60;42.40;;;;;;8334103;28;19922;-45
2022/12/23 00:06:18;;;;;;;;;;;19.60;42.30;;;;;;8334414;28;19913;-44
2022/12/23 00:10:19;;;;;;;;;;;19.60;42.40;;;;;;8333612;28;19941;-44
2022/12/23 00:18:38;;;;;;;;;;;19.50;42.40;;;;;;8333961;28;19923;-45
2022/12/23 00:26:58;;;;;;;;;;;19.50;42.40;;;;;;8334049;28;19959;-44
2022/12/23 00:30:58;;;;;;;;;;;19.50;42.70;;;;;;8333512;28;20374;-45
2022/12/23 00:34:58;;;;;;;;;;;19.50;42.70;;;;;;8333166;28;19923;-44
2022/12/23 00:43:18;;;;;;;;;;;19.60;42.90;;;;;;8334006;28;19971;-45
2022/12/23 00:51:38;;;;;;;;;;;19.50;42.90;;;;;;8333396;28;19974;-44
2022/12/23 00:55:38;;;;;;;;;;;19.50;43.00;;;;;;8332096;28;19917;-44
2022/12/23 00:59:38;;;;;;;;;;;19.50;42.80;;;;;;8332394;28;20374;-44
2022/12/23 01:07:58;;;;;;;;;;;19.50;43.20;;;;;;8332400;28;19983;-45
2022/12/23 01:11:59;;;;;;;;;;;19.40;42.90;;;;;;8332349;28;19913;-44
2022/12/23 01:16:00;;;;;;;;;;;19.40;42.90;;;;;;8332011;28;20349;-44
2022/12/23 01:20:00;;;;;;;;;;;19.50;43.20;;;;;;8331372;28;19932;-44
2022/12/23 01:24:01;;;;;;;;;;;19.40;42.90;;;;;;8331647;28;19921;-44
2022/12/23 01:28:01;;;;;;;;;;;19.40;43.30;;;;;;8331513;28;19936;-44
2022/12/23 01:32:02;;;;;;;;;;;19.40;43.00;;;;;;8330704;28;20230;-45
2022/12/23 01:36:03;;;;;;;;;;;19.40;43.10;;;;;;8331619;28;19917;-45
2022/12/23 01:40:04;;;;;;;;;;;19.40;43.30;;;;;;8331306;28;20286;-44
2022/12/23 01:44:23;;;;;;;;;;;19.40;43.20;;;;;;8330582;28;19992;-44
2022/12/23 01:48:25;;;;;;;;;;;19.40;43.40;;;;;;8330961;28;19917;-44
2022/12/23 01:52:26;;;;;;;;;;;19.40;43.40;;;;;;8330964;28;19928;-44
2022/12/23 01:56:29;;;;;;;;;;;19.40;43.50;;;;;;8330644;28;20371;-44
2022/12/23 02:04:49;;;;;;;;;;;19.40;43.30;;;;;;8330300;28;20413;-45
2022/12/23 02:13:33;;;;;;;;;;;19.40;43.30;;;;;;8321245;28;20390;-44
2022/12/23 02:17:40;;;;;;;;;;;19.40;43.40;;;;;;8330605;28;19913;-44
2022/12/23 02:21:44;;;;;;;;;;;19.40;43.10;;;;;;8330008;28;19971;-44
2022/12/23 02:25:55;;;;;;;;;;;19.30;43.20;;;;;;8329743;28;20326;-44
2022/12/23 02:30:02;;;;;;;;;;;19.30;43.40;;;;;;8330303;28;19961;-45
2022/12/23 02:34:17;;;;;;;;;;;19.30;43.40;;;;;;8329905;28;19917;-45
2022/12/23 02:38:22;;;;;;;;;;;19.30;43.40;;;;;;8329832;28;19913;-45
2022/12/23 02:42:24;;;;;;;;;;;19.30;43.40;;;;;;8330199;28;20385;-45
2022/12/23 02:46:31;;;;;;;;;;;19.30;43.50;;;;;;8329478;28;20012;-44
2022/12/23 02:50:34;;;;;;;;;;;19.30;43.40;;;;;;8329993;28;19924;-45
2022/12/23 02:54:36;;;;;;;;;;;19.30;43.40;;;;;;8329744;28;19918;-44
2022/12/23 02:58:41;;;;;;;;;;;19.20;43.30;;;;;;8329072;28;19986;-44
2022/12/23 03:02:42;;;;;;;;;;;19.30;43.50;;;;;;8330080;28;19930;-45
2022/12/23 03:06:44;;;;;;;;;;;19.30;43.40;;;;;;8330376;28;19921;-44
2022/12/23 03:10:57;;;;;;;;;;;19.30;43.40;;;;;;8335611;28;19921;-44
2022/12/23 03:15:24;;;;;;;;;;;19.30;43.70;;;;;;8335500;28;19917;-44
2022/12/23 03:19:35;;;;;;;;;;;19.20;43.50;;;;;;8331179;28;20353;-45
2022/12/23 03:23:39;;;;;;;;;;;19.20;43.50;;;;;;8335563;28;19936;-44
2022/12/23 03:27:45;;;;;;;;;;;19.20;43.40;;;;;;8335803;28;19992;-45
2022/12/23 03:31:46;;;;;;;;;;;19.20;43.60;;;;;;8334876;28;20414;-44
2022/12/23 03:35:51;;;;;;;;;;;19.20;43.50;;;;;;8335220;28;19917;-45
2022/12/23 03:39:53;;;;;;;;;;;19.20;43.50;;;;;;8335048;28;19929;-44
2022/12/23 03:43:58;;;;;;;;;;;19.20;43.70;;;;;;8334426;28;19924;-45
2022/12/23 03:48:04;;;;;;;;;;;19.20;43.50;;;;;;8334874;28;20022;-44
2022/12/23 03:52:08;;;;;;;;;;;19.20;43.70;;;;;;8334432;28;20297;-45
2022/12/23 03:56:12;;;;;;;;;;;19.20;43.60;;;;;;8334328;28;20031;-45
2022/12/23 04:00:13;;;;;;;;;;;19.20;43.50;;;;;;8333838;28;19925;-44
2022/12/23 04:04:23;;;;;;;;;;;19.10;43.80;;;;;;8333989;28;19944;-45
2022/12/23 04:08:26;;;;;;;;;;;19.20;43.50;;;;;;8334620;28;19913;-44
2022/12/23 04:12:28;;;;;;;;;;;19.10;43.30;;;;;;8334020;28;20425;-45
2022/12/23 04:16:29;;;;;;;;;;;19.20;43.50;;;;;;8333474;28;20985;-45
2022/12/23 04:20:29;;;;;;;;;;;19.10;43.40;;;;;;8332687;28;19961;-45
2022/12/23 04:24:29;;;;;;;;;;;19.20;43.50;;;;;;8333783;28;19924;-44
2022/12/23 04:28:30;;;;;;;;;;;19.20;43.80;;;;;;8333328;28;19963;-45
2022/12/23 04:32:30;;;;;;;;;;;19.20;43.80;;;;;;8333516;28;19924;-45
2022/12/23 04:36:31;;;;;;;;;;;19.20;43.60;;;;;;8333399;28;20015;-44
2022/12/23 04:40:31;;;;;;;;;;;19.20;43.40;;;;;;8332621;28;20382;-44
2022/12/23 04:44:32;;;;;;;;;;;19.20;43.40;;;;;;8333140;28;20390;-44
2022/12/23 04:48:32;;;;;;;;;;;19.20;43.60;;;;;;8333410;28;19940;-46
2022/12/23 04:52:33;;;;;;;;;;;19.20;43.30;;;;;;8332390;28;19971;-45
2022/12/23 04:56:33;;;;;;;;;;;19.20;43.30;;;;;;8332994;28;19917;-44
2022/12/23 05:00:34;;;;;;;;;;;19.30;43.40;;;;;;8332486;28;20006;-44
2022/12/23 05:04:34;;;;;;;;;;;19.20;43.40;;;;;;8331598;28;19979;-45
2022/12/23 05:08:35;;;;;;;;;;;19.20;43.40;;;;;;8332452;28;19914;-45
2022/12/23 05:12:35;;;;;;;;;;;19.30;43.50;;;;;;8330694;28;19976;-45
2022/12/23 05:16:36;;;;;;;;;;;19.20;43.40;;;;;;8331544;28;19917;-45
2022/12/23 05:20:36;;;;;;;;;;;19.30;44.20;;;;;;8331812;28;19925;-46
2022/12/23 05:24:36;;;;;;;;;;;19.30;43.60;;;;;;8331700;28;19913;-47
2022/12/23 05:28:37;;;;;;;;;;;19.20;43.40;;;;;;8331414;28;19921;-45
2022/12/23 05:32:38;;;;;;;;;;;19.30;43.80;;;;;;8331205;28;19925;-44
2022/12/23 05:36:38;;;;;;;;;;;19.30;43.60;;;;;;8331020;28;19919;-44
2022/12/23 05:40:39;;;;;;;;;;;19.30;43.70;;;;;;8330382;28;20079;-44
2022/12/23 05:44:39;;;;;;;;;;;19.30;43.50;;;;;;8330914;28;19913;-46
2022/12/23 05:48:39;;;;;;;;;;;19.20;43.60;;;;;;8330866;28;20004;-46
2022/12/23 05:52:40;;;;;;;;;;;19.20;43.30;;;;;;8330692;28;19921;-44
2022/12/23 05:56:40;;;;;;;;;;;19.20;43.40;;;;;;8330996;28;20362;-46
2022/12/23 06:00:41;;;;;;;;;;;19.20;43.40;;;;;;8330771;28;19925;-44
2022/12/23 06:04:41;;;;;;;;;;;19.20;43.40;;;;;;8330278;28;20012;-45
2022/12/23 06:08:41;;;;;;;;;;;19.20;43.40;;;;;;8330787;28;20208;-45
2022/12/23 06:12:42;;;;;;;;;;;19.20;43.40;;;;;;8330410;28;20007;-45
2022/12/23 06:16:42;;;;;;;;;;;19.20;43.40;;;;;;8329821;28;19924;-45
2022/12/23 06:20:44;;;;;;;;;;;19.20;43.50;;;;;;8330414;28;20294;-44
2022/12/23 06:24:44;;;;;;;;;;;19.20;43.50;;;;;;8330133;28;19922;-44
2022/12/23 06:28:45;;;;;;;;;;;19.20;43.40;;;;;;8329882;28;19917;-45
2022/12/23 06:32:45;;;;;;;;;;;19.20;43.40;;;;;;8329922;28;19921;-45
2022/12/23 06:36:46;;;;;;;;;;;19.20;43.30;;;;;;8329984;28;19925;-45
2022/12/23 06:40:46;;;;;;;;;;;19.20;43.40;;;;;;8329251;28;20365;-46
2022/12/23 06:44:47;;;;;;;;;;;19.20;43.50;;;;;;8336439;28;19922;-44
2022/12/23 06:48:47;;;;;;;;;;;19.10;43.30;;;;;;8336832;28;20044;-48
2022/12/23 06:52:48;;;;;;;;;;;19.20;44.00;;;;;;8335853;28;19921;-45
2022/12/23 06:56:48;;;;;;;;;;;19.20;43.40;;;;;;8336795;28;19918;-45
2022/12/23 07:00:48;;;;;;;;;;;19.10;43.60;;;;;;8336283;28;19921;-45
2022/12/23 07:04:49;;;;;;;;;;;19.10;43.60;;;;;;8335732;28;19917;-45
2022/12/23 07:08:49;;;;;;;;;;;19.20;43.40;;;;;;8336135;28;20369;-46
2022/12/23 07:12:50;;;;;;;;;;;19.10;43.40;;;;;;8335821;28;19917;-45
2022/12/23 07:16:50;;;;;;;;;;;19.10;43.30;;;;;;8335093;28;19917;-45
2022/12/23 07:20:51;;;;;;;;;;;19.10;43.30;;;;;;8335716;28;19972;-46
2022/12/23 07:24:51;;;;;;;;;;;19.20;43.40;;;;;;8335803;28;19917;-47
2022/12/23 07:28:52;;;;;;;;;;;19.10;43.40;;;;;;8334920;28;19928;-46
2022/12/23 07:32:52;;;;;;;;;;;19.10;43.40;;;;;;8335178;28;19918;-46
2022/12/23 07:36:52;;;;;;;;;;;19.10;43.40;;;;;;8335027;28;20021;-46
2022/12/23 07:40:53;;;;;;;;;;;19.10;43.40;;;;;;8334246;28;19975;-47
2022/12/23 07:44:53;;;;;;;;;;;19.10;43.50;;;;;;8335071;28;19913;-46
2022/12/23 07:48:54;;;;;;;;;;;19.10;43.70;;;;;;8334772;28;19924;-46
2022/12/23 07:52:54;;;;;;;;;;;19.10;43.50;;;;;;8334280;28;20324;-46
2022/12/23 07:56:56;;;;;;;;;;;19.10;43.60;;;;;;8334537;28;19917;-46
2022/12/23 08:00:57;;;;;;;;;;;19.10;43.40;;;;;;8334429;28;19921;-48
2022/12/23 08:04:58;;;;;;;;;;;19.10;43.40;;;;;;8334253;28;19948;-49
2022/12/23 08:08:58;;;;;;;;;;;19.10;43.40;;;;;;8333559;28;20339;-49
2022/12/23 08:12:59;;;;;;;;;;;19.10;43.40;;;;;;8334383;28;19952;-44
2022/12/23 08:17:00;;;;;;;;;;;19.10;43.50;;;;;;8333875;28;20436;-46
2022/12/23 08:21:01;;;;;;;;;;;19.10;43.40;;;;;;8334222;28;19921;-47
2022/12/23 08:25:03;;;;;;;;;;;19.10;43.70;;;;;;8333992;28;19921;-46
2022/12/23 08:29:03;;;;;;;;;;;19.10;43.50;;;;;;8333036;28;20354;-46
2022/12/23 08:33:03;;;;;;;;;;;19.20;43.70;;;;;;8333554;28;19917;-45
2022/12/23 08:37:04;;;;;;;;;;;19.20;43.70;;;;;;8333357;28;19948;-46
2022/12/23 08:41:09;;;;;;;;;;;19.20;43.70;;;;;;8332622;28;19929;-46
2022/12/23 08:45:09;;;;;;;;;;;19.20;43.60;;;;;;8333323;28;19913;-45
2022/12/23 08:49:10;;;;;;;;;;;19.20;43.50;;;;;;8333158;28;20405;-46
2022/12/23 08:53:11;;;;;;;;;;;19.20;43.60;;;;;;8332867;28;19925;-46
2022/12/23 08:57:11;;;;;;;;;;;19.30;43.70;;;;;;8332616;28;19914;-46
2022/12/23 09:01:13;;;;;;;;;;;19.20;43.70;;;;;;8332063;28;20386;-47
2022/12/23 09:05:13;;;;;;;;;;;19.30;43.50;;;;;;8331766;28;20333;-46
2022/12/23 09:09:14;;;;;;;;;;;19.20;43.80;;;;;;8332532;28;19917;-46
2022/12/23 09:13:15;;;;;;;;;;;19.30;43.80;;;;;;8331667;28;20011;-49
2022/12/23 09:17:16;;;;;;;;;;;19.30;43.90;;;;;;8331933;28;20314;-45
2022/12/23 09:21:18;;;;;;;;;;;19.30;44.00;;;;;;8332043;28;19921;-48
2022/12/23 09:25:19;;;;;;;;;;;19.30;43.80;;;;;;8331288;28;19956;-46
2022/12/23 09:29:19;;;;;;;;;;;19.30;43.70;;;;;;8331540;28;19924;-48
2022/12/23 09:33:20;;;;;;;;;;;19.30;43.70;;;;;;8331475;28;19924;-47
2022/12/23 09:37:20;;;;;;;;;;;19.30;43.80;;;;;;8330878;28;19914;-47
2022/12/23 09:41:32;;;;;;;;;;;19.30;43.60;;;;;;8331142;28;20302;-46
2022/12/23 09:45:56;;;;;;;;;;;19.30;43.70;;;;;;8331420;28;19924;-47
2022/12/23 09:50:01;;;;;;;;;;;19.20;43.60;;;;;;8320314;28;19924;-46
2022/12/23 09:54:13;;;;;;;;;;;19.20;43.50;;;;;;8331373;28;20442;-46
2022/12/23 09:58:26;;;;;;;;;;;19.20;43.60;;;;;;8330351;28;19913;-47
2022/12/23 10:02:45;;;;;;;;;;;19.20;43.60;;;;;;8331027;28;19957;-46
2022/12/23 10:06:49;;;;;;;;;;;19.20;43.90;;;;;;8330630;28;19917;-46
2022/12/23 10:10:52;;;;;;;;;;;19.20;43.70;;;;;;8330262;28;19940;-48
2022/12/23 10:14:54;;;;;;;;;;;19.30;43.70;;;;;;8330698;28;19921;-46
2022/12/23 10:18:55;;;;;;;;;;;19.30;43.60;;;;;;8330292;28;20378;-45
2022/12/23 10:22:55;;;;;;;;;;;19.20;43.60;;;;;;8329701;28;19929;-44
2022/12/23 10:27:04;;;;;;;;;;;19.20;43.70;;;;;;8330131;28;20362;-46
2022/12/23 10:31:14;;;;;;;;;;;19.20;43.60;;;;;;8330449;28;19924;-46
2022/12/23 10:35:14;;;;;;;;;;;19.20;43.60;;;;;;8330041;28;19917;-46
2022/12/23 10:39:23;;;;;;;;;;;19.20;43.90;;;;;;8330124;28;20401;-48
2022/12/23 10:43:45;;;;;;;;;;;19.20;43.70;;;;;;8329185;28;20354;-46
2022/12/23 10:47:54;;;;;;;;;;;19.20;43.80;;;;;;8329721;28;19917;-46
2022/12/23 10:51:59;;;;;;;;;;;19.20;43.90;;;;;;8328669;28;19921;-47
2022/12/23 10:55:59;;;;;;;;;;;19.20;43.60;;;;;;8328812;28;20363;-46
2022/12/23 11:00:00;;;;;;;;;;;19.20;43.90;;;;;;8329818;28;19933;-46
2022/12/23 11:04:15;;;;;;;;;;;19.20;43.50;;;;;;8329321;28;19921;-46
2022/12/23 11:08:16;;;;;;;;;;;19.20;43.80;;;;;;8329481;28;19928;-46
2022/12/23 11:12:20;;;;;;;;;;;19.20;43.80;;;;;;8318018;28;19924;-46
2022/12/23 11:16:25;;;;;;;;;;;19.20;43.90;;;;;;8329105;28;20396;-47
2022/12/23 11:20:26;;;;;;;;;;;19.20;43.90;;;;;;8329454;28;19929;-46
2022/12/23 11:24:31;;;;;;;;;;;19.20;43.90;;;;;;8329528;28;19924;-46
2022/12/23 11:28:34;;;;;;;;;;;19.10;43.90;;;;;;8330929;28;19951;-48
2022/12/23 11:32:34;;;;;;;;;;;19.20;43.90;;;;;;8334621;28;19924;-47
2022/12/23 11:36:35;;;;;;;;;;;19.20;44.20;;;;;;8335502;28;20286;-46
2022/12/23 11:40:37;;;;;;;;;;;19.20;43.90;;;;;;8334520;28;19936;-46
2022/12/23 11:44:43;;;;;;;;;;;19.10;43.80;;;;;;8335266;28;19924;-46
2022/12/23 11:48:44;;;;;;;;;;;19.20;43.90;;;;;;8334836;28;20348;-47
2022/12/23 11:52:51;;;;;;;;;;;19.10;43.70;;;;;;8334681;28;19925;-46
2022/12/23 11:56:52;;;;;;;;;;;19.10;43.80;;;;;;8334611;28;19913;-46
2022/12/23 12:00:57;;;;;;;;;;;19.20;43.80;;;;;;8334634;28;19929;-45
2022/12/23 12:05:07;;;;;;;;;;;19.20;44.00;;;;;;8333901;28;20354;-47
2022/12/23 12:09:10;;;;;;;;;;;19.20;44.00;;;;;;8334376;28;20319;-48
2022/12/23 12:13:31;;;;;;;;;;;19.20;44.10;;;;;;8333857;28;19924;-45
2022/12/23 12:17:51;;;;;;;;;;;19.20;44.10;;;;;;8333542;28;19925;-46
2022/12/23 12:21:55;;;;;;;;;;;19.20;44.40;;;;;;8333605;28;20371;-46
2022/12/23 12:25:58;;;;;;;;;;;19.20;44.20;;;;;;8333460;28;20440;-45
2022/12/23 12:30:01;;;;;;;;;;;19.20;44.30;;;;;;8333540;28;20333;-47
2022/12/23 12:34:04;;;;;;;;;;;19.20;44.10;;;;;;8333468;28;19918;-46
2022/12/23 12:38:10;;;;;;;;;;;19.30;44.40;;;;;;8332843;28;19917;-46
2022/12/23 12:42:25;;;;;;;;;;;19.20;44.10;;;;;;8332178;28;19921;-46
2022/12/23 12:46:35;;;;;;;;;;;19.20;44.30;;;;;;8334926;28;19913;-46
2022/12/23 12:50:53;;;;;;;;;;;19.30;44.40;;;;;;8332771;28;19923;-46
2022/12/23 12:54:57;;;;;;;;;;;19.20;44.40;;;;;;8332887;28;20462;-46
2022/12/23 12:58:57;;;;;;;;;;;19.30;44.70;;;;;;8332228;28;19917;-46
2022/12/23 13:03:17;;;;;;;;;;;19.30;44.60;;;;;;8332348;28;19932;-47
2022/12/23 13:07:27;;;;;;;;;;;19.30;44.70;;;;;;8331995;28;19913;-46
2022/12/23 13:11:34;;;;;;;;;;;19.30;44.30;;;;;;8331988;28;21293;-45
2022/12/23 13:15:39;;;;;;;;;;;19.20;44.40;;;;;;8332175;28;19921;-46
2022/12/23 13:19:55;;;;;;;;;;;19.20;44.20;;;;;;8331501;28;20370;-45
2022/12/23 13:24:04;;;;;;;;;;;19.20;44.40;;;;;;8332076;28;20405;-48
2022/12/23 13:28:23;;;;;;;;;;;19.20;44.50;;;;;;8331871;28;19917;-45
2022/12/23 13:32:35;;;;;;;;;;;19.20;44.20;;;;;;8331374;28;20434;-44
2022/12/23 13:36:44;;;;;;;;;;;19.30;44.50;;;;;;8331712;28;19913;-46
2022/12/23 13:41:04;;;;;;;;;;;19.30;45.00;;;;;;8330849;28;19935;-45
2022/12/23 13:45:10;;;;;;;;;;;19.20;44.20;;;;;;8331375;28;19917;-45
2022/12/23 13:49:23;;;;;;;;;;;19.20;44.70;;;;;;8331155;28;20263;-46
2022/12/23 13:53:28;;;;;;;;;;;19.20;44.50;;;;;;8330800;28;20289;-45
2022/12/23 13:58:03;;;;;;;;;;;19.20;44.80;;;;;;8331042;28;20377;-47
2022/12/23 14:02:24;;;;;;;;;;;19.20;44.50;;;;;;8256233;28;19932;-46
2022/12/23 14:06:24;;;;;;;;;;;19.20;44.60;;;;;;8329556;28;19924;-46
2022/12/23 14:10:25;;;;;;;;;;;19.20;44.50;;;;;;8319291;28;19984;-45
2022/12/23 14:14:27;;;;;;;;;;;19.20;44.40;;;;;;8317177;28;19917;-46
2022/12/23 14:18:41;;;;;;;;;;;19.20;44.30;;;;;;8323749;28;19924;-46
2022/12/23 14:22:44;;;;;;;;;;;19.20;44.30;;;;;;8326893;28;20500;-46
2022/12/23 14:27:15;;;;;;;;;;;19.20;44.60;;;;;;8320922;28;19921;-46
2022/12/23 14:31:34;;;;;;;;;;;19.20;44.60;;;;;;8327477;28;19924;-46
2022/12/23 14:35:38;;;;;;;;;;;19.20;44.60;;;;;;8328916;28;19917;-45
2022/12/23 14:39:38;;;;;;;;;;;19.20;44.60;;;;;;8326290;28;19941;-46
2022/12/23 14:43:44;;;;;;;;;;;19.20;44.60;;;;;;8310731;28;20409;-45
2022/12/23 14:47:45;;;;;;;;;;;19.20;44.70;;;;;;8304363;28;19921;-46
2022/12/23 14:51:49;;;;;;;;;;;19.20;44.60;;;;;;8307528;28;20373;-47
2022/12/23 14:55:51;;;;;;;;;;;19.20;44.30;;;;;;8329231;28;20301;-45
2022/12/23 14:59:59;;;;;;;;;;;19.20;44.60;;;;;;8322478;28;19924;-46
2022/12/23 15:04:04;;;;;;;;;;;19.20;44.30;;;;;;8308034;28;19922;-46
2022/12/23 15:08:10;;;;;;;;;;;19.20;45.00;;;;;;8334166;28;19917;-48
2022/12/23 15:12:16;;;;;;;;;;;19.20;44.40;;;;;;8333435;28;19917;-47
2022/12/23 15:16:17;;;;;;;;;;;19.20;44.80;;;;;;8318716;28;20076;-46
2022/12/23 15:20:20;;;;;;;;;;;19.20;45.20;;;;;;8321225;28;19997;-46
2022/12/23 15:24:21;;;;;;;;;;;19.20;44.60;;;;;;8335018;28;19948;-46
2022/12/23 15:28:23;;;;;;;;;;;19.20;44.70;;;;;;8331440;28;20043;-47
2022/12/23 15:32:23;;;;;;;;;;;19.20;44.60;;;;;;8333366;28;19920;-47
2022/12/23 15:36:29;;;;;;;;;;;19.20;44.70;;;;;;8324900;28;19921;-46
2022/12/23 15:40:31;;;;;;;;;;;19.20;44.80;;;;;;8334478;28;19925;-45
2022/12/23 15:44:33;;;;;;;;;;;19.20;45.00;;;;;;8331908;28;19971;-46
2022/12/23 15:48:34;;;;;;;;;;;19.20;44.90;;;;;;8321310;28;19924;-46
2022/12/23 15:52:34;;;;;;;;;;;19.20;45.00;;;;;;8333067;28;20314;-46
2022/12/23 15:56:37;;;;;;;;;;;19.20;45.00;;;;;;8331974;28;20016;-47
2022/12/23 16:00:39;;;;;;;;;;;19.30;45.20;;;;;;8317554;28;20358;-46
2022/12/23 16:04:39;;;;;;;;;;;19.20;45.10;;;;;;8324239;28;19928;-46
2022/12/23 16:08:40;;;;;;;;;;;19.20;45.00;;;;;;8316222;28;19917;-46
2022/12/23 16:12:42;;;;;;;;;;;19.20;45.30;;;;;;8333609;28;19918;-46
2022/12/23 16:16:42;;;;;;;;;;;19.30;45.10;;;;;;8331348;28;20339;-46
2022/12/23 16:20:44;;;;;;;;;;;19.30;45.20;;;;;;8334146;28;19940;-47
2022/12/23 16:24:46;;;;;;;;;;;19.30;45.30;;;;;;8334045;28;19913;-47
2022/12/23 16:28:49;;;;;;;;;;;19.30;45.30;;;;;;8326150;28;19921;-47
2022/12/23 16:32:50;;;;;;;;;;;19.30;45.50;;;;;;8333332;28;19924;-46
2022/12/23 16:36:51;;;;;;;;;;;19.30;45.20;;;;;;8331837;28;19917;-47
2022/12/23 16:40:52;;;;;;;;;;;19.20;45.30;;;;;;8322636;28;20433;-45
2022/12/23 16:44:53;;;;;;;;;;;19.30;45.10;;;;;;8324013;28;20008;-46
2022/12/23 16:48:55;;;;;;;;;;;19.20;45.70;;;;;;8332017;28;19917;-46
2022/12/23 16:52:55;;;;;;;;;;;19.30;45.50;;;;;;8331448;28;20421;-48
2022/12/23 16:56:56;;;;;;;;;;;19.30;45.50;;;;;;8319426;28;19917;-47
2022/12/23 17:00:57;;;;;;;;;;;19.30;45.30;;;;;;8330292;28;19967;-45
2022/12/23 17:04:57;;;;;;;;;;;19.20;45.30;;;;;;8326694;28;19917;-45
2022/12/23 17:08:58;;;;;;;;;;;19.20;45.10;;;;;;8332324;28;19913;-46
2022/12/23 17:12:58;;;;;;;;;;;19.20;45.20;;;;;;8332593;28;20371;-46
2022/12/23 17:16:59;;;;;;;;;;;19.20;44.70;;;;;;8331563;28;20052;-45
2022/12/23 17:20:59;;;;;;;;;;;19.20;45.20;;;;;;8332096;28;19925;-46
2022/12/23 17:25:00;;;;;;;;;;;19.20;45.10;;;;;;8331427;28;20024;-45
2022/12/23 17:29:02;;;;;;;;;;;19.20;44.80;;;;;;8331128;28;19919;-46
2022/12/23 17:33:02;;;;;;;;;;;19.30;45.20;;;;;;8331925;28;19960;-46
2022/12/23 17:37:10;;;;;;;;;;;19.20;45.30;;;;;;8331453;28;20401;-46
2022/12/23 17:41:37;;;;;;;;;;;19.20;44.90;;;;;;8330899;28;19932;-46
2022/12/23 17:45:38;;;;;;;;;;;19.20;44.90;;;;;;8327371;28;19918;-45
2022/12/23 17:49:38;;;;;;;;;;;19.20;44.80;;;;;;8330555;28;19952;-46
2022/12/23 17:53:38;;;;;;;;;;;19.20;45.00;;;;;;8331577;28;19920;-45
2022/12/23 17:57:39;;;;;;;;;;;19.20;45.20;;;;;;8330792;28;20352;-46
2022/12/23 18:01:39;;;;;;;;;;;19.20;45.10;;;;;;8330241;28;19970;-46
2022/12/23 18:05:40;;;;;;;;;;;19.20;45.20;;;;;;8331002;28;19964;-46
2022/12/23 18:09:40;;;;;;;;;;;19.20;45.10;;;;;;8330616;28;20330;-46
2022/12/23 18:13:41;;;;;;;;;;;19.20;45.30;;;;;;8330366;28;19917;-47
2022/12/23 18:17:41;;;;;;;;;;;19.20;45.30;;;;;;8330587;28;19963;-47
2022/12/23 18:21:41;;;;;;;;;;;19.20;45.30;;;;;;8330052;28;19925;-46
2022/12/23 18:25:42;;;;;;;;;;;19.20;45.20;;;;;;8329698;28;19929;-46
2022/12/23 18:29:43;;;;;;;;;;;19.20;45.40;;;;;;8329959;28;19928;-47
2022/12/23 18:33:43;;;;;;;;;;;19.20;45.30;;;;;;8330311;28;19921;-47
2022/12/23 18:37:44;;;;;;;;;;;19.20;44.90;;;;;;8328677;28;19967;-46
2022/12/23 18:41:44;;;;;;;;;;;19.20;45.30;;;;;;8329694;28;19925;-46
2022/12/23 18:45:45;;;;;;;;;;;19.20;45.10;;;;;;8329853;28;20437;-46
2022/12/23 18:49:45;;;;;;;;;;;19.20;45.20;;;;;;8329389;28;19929;-46
2022/12/23 18:53:46;;;;;;;;;;;19.20;44.90;;;;;;8330399;28;19921;-47
2022/12/23 18:57:47;;;;;;;;;;;19.20;44.90;;;;;;8329727;28;20378;-46
2022/12/23 19:01:48;;;;;;;;;;;19.20;45.40;;;;;;8329374;28;19932;-46
2022/12/23 19:05:49;;;;;;;;;;;19.20;45.20;;;;;;8329634;28;19914;-47
2022/12/23 19:09:50;;;;;;;;;;;19.20;45.10;;;;;;8329774;28;19918;-47
2022/12/23 19:13:50;;;;;;;;;;;19.20;45.10;;;;;;8329156;28;19918;-46
2022/12/23 19:17:51;;;;;;;;;;;19.20;44.90;;;;;;8329384;28;19948;-46
2022/12/23 19:21:51;;;;;;;;;;;19.20;45.00;;;;;;8329410;28;19928;-46
2022/12/23 19:25:52;;;;;;;;;;;19.20;45.20;;;;;;8328889;28;19960;-46
2022/12/23 19:29:52;;;;;;;;;;;19.20;45.10;;;;;;8329661;28;19920;-46
2022/12/23 19:33:52;;;;;;;;;;;19.20;45.30;;;;;;8329404;28;19928;-46
2022/12/23 19:37:53;;;;;;;;;;;19.20;45.20;;;;;;8328713;28;20318;-48
2022/12/23 19:41:53;;;;;;;;;;;19.20;45.00;;;;;;8328966;28;19991;-47
2022/12/23 19:45:55;;;;;;;;;;;19.20;45.30;;;;;;8329051;28;19917;-46
2022/12/23 19:49:55;;;;;;;;;;;19.20;45.20;;;;;;8331285;28;19923;-46
2022/12/23 19:53:56;;;;;;;;;;;19.20;45.10;;;;;;8335365;28;19921;-46
2022/12/23 19:57:56;;;;;;;;;;;19.20;45.20;;;;;;8334681;28;20003;-46
2022/12/23 20:01:57;;;;;;;;;;;19.20;45.10;;;;;;8334053;28;20210;-46
2022/12/23 20:05:57;;;;;;;;;;;19.20;45.70;;;;;;8334432;28;20398;-47
2022/12/23 20:09:57;;;;;;;;;;;19.20;45.30;;;;;;8315775;28;19918;-46
2022/12/23 20:13:59;;;;;;;;;;;19.20;45.10;;;;;;8333067;28;19939;-46
2022/12/23 20:17:59;;;;;;;;;;;19.20;45.20;;;;;;8334238;28;20383;-46
2022/12/23 20:21:59;;;;;;;;;;;19.20;45.20;;;;;;8333940;28;19989;-46
2022/12/23 20:26:00;;;;;;;;;;;19.20;45.00;;;;;;8332026;28;19917;-46
2022/12/23 20:30:00;;;;;;;;;;;19.30;45.30;;;;;;8334040;28;19913;-46
2022/12/23 20:34:01;;;;;;;;;;;19.20;45.70;;;;;;8333487;28;20012;-46
2022/12/23 20:38:02;;;;;;;;;;;19.30;45.30;;;;;;8333016;28;20408;-46
2022/12/23 20:42:02;;;;;;;;;;;19.30;45.20;;;;;;8333163;28;19921;-46
2022/12/23 20:46:04;;;;;;;;;;;19.20;45.30;;;;;;8333258;28;20007;-45
2022/12/23 20:50:05;;;;;;;;;;;19.20;45.00;;;;;;8332761;28;19921;-46
2022/12/23 20:54:05;;;;;;;;;;;19.30;45.10;;;;;;8333202;28;19922;-46
2022/12/23 21:02:25;;;;;;;;;;;19.30;45.20;;;;;;8331421;28;19932;-46
2022/12/23 21:06:26;;;;;;;;;;;19.20;45.30;;;;;;8332471;28;20016;-46
2022/12/23 21:10:26;;;;;;;;;;;19.30;45.40;;;;;;8332250;28;20366;-45
2022/12/23 21:14:26;;;;;;;;;;;19.20;45.10;;;;;;8332491;28;19925;-47
2022/12/23 21:18:27;;;;;;;;;;;19.20;45.10;;;;;;8332287;28;20367;-46
2022/12/23 21:22:27;;;;;;;;;;;19.20;45.20;;;;;;8331803;28;19921;-46
2022/12/23 21:26:29;;;;;;;;;;;19.20;45.10;;;;;;8332013;28;20370;-47
2022/12/23 21:30:29;;;;;;;;;;;19.20;45.00;;;;;;8332151;28;19932;-46
2022/12/23 21:34:29;;;;;;;;;;;19.20;45.60;;;;;;8331323;28;20281;-47
2022/12/23 21:38:31;;;;;;;;;;;19.20;45.20;;;;;;8331542;28;20259;-46
2022/12/23 21:42:32;;;;;;;;;;;19.30;46.00;;;;;;8331607;28;19945;-45
2022/12/23 21:46:32;;;;;;;;;;;19.30;45.90;;;;;;8330930;28;19929;-47
2022/12/23 21:50:33;;;;;;;;;;;19.30;45.80;;;;;;8331325;28;20282;-47
2022/12/23 21:54:33;;;;;;;;;;;19.30;46.10;;;;;;8331242;28;19926;-47
2022/12/23 21:58:34;;;;;;;;;;;19.30;46.10;;;;;;8330500;28;20362;-45
2022/12/23 22:02:34;;;;;;;;;;;19.30;46.10;;;;;;8330885;28;20063;-47
2022/12/23 22:06:36;;;;;;;;;;;19.30;45.90;;;;;;8330638;28;19918;-47
2022/12/23 22:10:37;;;;;;;;;;;19.30;46.60;;;;;;8330460;28;20000;-47
2022/12/23 22:14:38;;;;;;;;;;;19.30;46.70;;;;;;8330415;28;19963;-46
2022/12/23 22:18:39;;;;;;;;;;;19.30;46.10;;;;;;8330769;28;19917;-47
2022/12/23 22:22:39;;;;;;;;;;;19.30;46.30;;;;;;8329807;28;19932;-47
2022/12/23 22:26:40;;;;;;;;;;;19.30;46.40;;;;;;8330492;28;19921;-47
2022/12/23 22:30:41;;;;;;;;;;;19.30;46.30;;;;;;8330464;28;19913;-47
2022/12/23 22:34:41;;;;;;;;;;;19.30;46.10;;;;;;8329786;28;20366;-48
2022/12/23 22:38:42;;;;;;;;;;;19.30;46.40;;;;;;8330032;28;20004;-47
2022/12/23 22:42:42;;;;;;;;;;;19.30;46.40;;;;;;8329818;28;20395;-46
2022/12/23 22:46:43;;;;;;;;;;;19.30;45.80;;;;;;8329457;28;19917;-47
2022/12/23 22:50:43;;;;;;;;;;;19.30;46.00;;;;;;8330076;28;19921;-46
2022/12/23 22:54:44;;;;;;;;;;;19.30;46.00;;;;;;8329796;28;19923;-47
2022/12/23 22:58:44;;;;;;;;;;;19.30;46.00;;;;;;8329263;28;19928;-46
2022/12/23 23:02:44;;;;;;;;;;;19.30;45.70;;;;;;8328561;28;20086;-47
2022/12/23 23:06:45;;;;;;;;;;;19.30;45.50;;;;;;8329616;28;19948;-47
2022/12/23 23:10:45;;;;;;;;;;;19.30;45.70;;;;;;8328467;28;19924;-47
2022/12/23 23:14:52;;;;;;;;;;;19.30;45.60;;;;;;8329521;28;20468;-47
2022/12/23 23:18:52;;;;;;;;;;;19.30;45.50;;;;;;8329623;28;19924;-47
2022/12/23 23:22:53;;;;;;;;;;;19.30;45.30;;;;;;8328872;28;20446;-46
2022/12/23 23:26:53;;;;;;;;;;;19.30;45.40;;;;;;8335334;28;20332;-47
2022/12/23 23:30:54;;;;;;;;;;;19.30;45.50;;;;;;8335809;28;20323;-46
2022/12/23 23:34:54;;;;;;;;;;;19.30;45.50;;;;;;8335167;28;19949;-47
2022/12/23 23:38:55;;;;;;;;;;;19.20;45.30;;;;;;8335383;28;19925;-47
2022/12/23 23:42:55;;;;;;;;;;;19.30;45.30;;;;;;8335255;28;19948;-46
2022/12/23 23:46:55;;;;;;;;;;;19.30;45.10;;;;;;8334709;28;19917;-47
2022/12/23 23:51:05;;;;;;;;;;;19.20;45.20;;;;;;8335272;28;19928;-47
2022/12/23 23:55:06;;;;;;;;;;;19.30;45.30;;;;;;8335087;28;19921;-47
2022/12/23 23:59:07;;;;;;;;;;;19.30;45.40;;;;;;8334320;28;19925;-47
